Data for 04/27/2018

Time Sea-Level Adjusted Pressure Absolute Pressure Temperature Relative Humidity Dew Point   
(mb) (inHg) (mb) (inHg) (C) (F) (%) (C) (F)
00:05 1021 30.15 851 25.13 7.9 46.3 37 -5.7 21.7
00:10 1021 30.15 851 25.13 8.3 46.9 35 -6.2 20.9
00:15 1021 30.15 850 25.1 8.7 47.7 34 -6.4 20.5
00:20 1021 30.15 850 25.1 8.7 47.7 33 -6.5 20.2
00:25 1021 30.15 850 25.1 8.7 47.7 34 -6.4 20.5
00:30 1021 30.15 850 25.1 8.5 47.3 35 -6.1 21
00:35 1021 30.15 851 25.13 8.3 47 35 -6.2 20.8
00:40 1021 30.15 850 25.1 8.3 46.9 35 -6.2 20.8
00:45 1021 30.15 851 25.13 8.5 47.3 34 -6.5 20.3
00:50 1021 30.15 851 25.13 8.6 47.5 33 -6.6 20.1
00:55 1021 30.15 851 25.13 8.9 48 33 -6.7 20
01:00 1021 30.15 850 25.1 8.8 47.8 33 -6.6 20.1
01:05 1021 30.15 850 25.1 8.7 47.6 34 -6.5 20.3
01:10 1021 30.15 850 25.1 8.4 47.1 34 -6.5 20.2
01:15 1021 30.15 850 25.1 8.5 47.2 33 -6.8 19.7
01:20 1021 30.15 850 25.1 8.7 47.7 32 -6.9 19.6
01:25 1021 30.15 850 25.1 8.9 48 32 -7.1 19.2
01:30 1021 30.15 850 25.1 9.2 48.6 31 -7.2 19.1
01:35 1021 30.15 850 25.1 9.4 48.8 31 -7.1 19.3
01:40 1021 30.15 850 25.1 9.5 49.2 29 -7.6 18.4
01:45 1021 30.15 850 25.1 10.3 50.6 27 -7.8 17.9
01:50 1021 30.15 850 25.1 10.2 50.4 31 -6.2 20.8
01:55 1021 30.15 850 25.1 9 48.1 34 -5.9 21.3
02:00 1021 30.15 850 25.1 8.4 47.1 34 -6.5 20.2
02:05 1021 30.15 850 25.1 8.3 46.9 35 -6.1 21
02:10 1021 30.15 850 25.1 7.7 45.9 37 -6 21.2
02:15 1021 30.15 850 25.1 7.4 45.3 39 -5.8 21.6
02:20 1021 30.15 850 25.1 7.2 45 38 -6.3 20.7
02:25 1021 30.15 850 25.1 7.3 45.2 38 -5.9 21.4
02:30 1021 30.15 850 25.1 7.1 44.8 38 -6.2 20.8
02:35 1021 30.15 850 25.1 7.1 44.8 39 -5.8 21.5
02:40 1021 30.15 850 25.1 6.6 43.9 42 -5.2 22.6
02:45 1021 30.15 850 25.1 6.5 43.7 42 -5.4 22.3
02:50 1021 30.15 850 25.1 6.5 43.7 42 -5.5 22
02:55 1021 30.15 850 25.1 6.7 44 41 -5.5 22.1
03:00 1021 30.15 850 25.1 6.9 44.3 41 -5.6 21.8
03:05 1021 30.15 850 25.1 6.9 44.5 39 -5.9 21.3
03:10 1021 30.15 850 25.1 7.1 44.7 40 -5.6 21.9
03:15 1021 30.15 850 25.1 6.9 44.4 41 -5.5 22.2
03:20 1021 30.15 850 25.1 6.8 44.3 41 -5.5 22
03:25 1021 30.15 850 25.1 6.9 44.4 41 -5.5 22.1
03:30 1021 30.15 850 25.1 6.7 44.1 41 -5.6 21.9
03:35 1021 30.15 850 25.1 6.6 43.9 43 -5 23
03:40 1021 30.15 850 25.1 5.8 42.5 46 -5 23
03:45 1021 30.15 850 25.1 5.8 42.4 45 -5.2 22.7
03:50 1021 30.15 850 25.1 6 42.9 42 -5.9 21.4
03:55 1021 30.15 850 25.1 6.4 43.6 41 -5.7 21.7
04:00 1021 30.15 850 25.1 6.5 43.7 41 -5.8 21.5
04:05 1021 30.15 850 25.1 6.7 44 41 -5.7 21.7
04:10 1021 30.15 850 25.1 6.7 44.1 40 -5.9 21.4
04:15 1021 30.15 850 25.1 6.7 44.1 41 -5.5 22.2
04:20 1021 30.15 850 25.1 6.6 43.8 41 -5.7 21.7
04:25 1021 30.15 850 25.1 6.6 43.8 42 -5.5 22.2
04:30 1021 30.15 850 25.1 6.4 43.5 43 -5.4 22.3
04:35 1021 30.15 850 25.1 6.1 42.9 44 -5.3 22.5
04:40 1021 30.15 850 25.1 5.8 42.5 44 -5.4 22.3
04:45 1021 30.15 850 25.1 5.7 42.3 46 -5.1 22.8
04:50 1021 30.15 850 25.1 5.6 42 46 -5 22.9
04:55 1021 30.15 850 25.1 5.4 41.8 47 -5.1 22.8
05:00 1021 30.15 850 25.1 5.5 41.9 46 -5.1 22.8
05:05 1020 30.12 850 25.1 5.5 41.9 47 -5 23
05:10 1020 30.12 850 25.1 5.5 41.9 46 -5.1 22.8
05:15 1020 30.12 850 25.1 5.7 42.3 45 -5.2 22.7
05:20 1020 30.12 850 25.1 6 42.8 45 -5.1 22.9
05:25 1020 30.12 850 25.1 6 42.8 46 -4.8 23.3
05:30 1020 30.12 850 25.1 5.8 42.4 46 -4.8 23.3
05:35 1020 30.12 850 25.1 5.7 42.2 47 -4.8 23.4
05:40 1020 30.12 850 25.1 5.6 42.1 46 -5 23.1
05:45 1020 30.12 850 25.1 5.7 42.3 46 -5 23.1
05:50 1020 30.12 850 25.1 5.8 42.4 45 -5.1 22.8
05:55 1020 30.12 850 25.1 5.9 42.6 45 -5.2 22.7
06:00 1021 30.15 850 25.1 6 42.8 44 -5.2 22.6
06:05 1021 30.15 850 25.1 6.2 43.2 43 -5.4 22.3
06:10 1021 30.15 850 25.1 6.5 43.6 42 -5.5 22
06:15 1021 30.15 850 25.1 6.7 44 42 -5.4 22.3
06:20 1021 30.15 850 25.1 6.7 44.1 40 -5.8 21.6
06:25 1021 30.15 850 25.1 7 44.6 41 -5.3 22.5
06:30 1021 30.15 850 25.1 6.6 43.9 41 -5.8 21.5
06:35 1021 30.15 850 25.1 6.3 43.3 40 -6.3 20.6
06:40 1021 30.15 850 25.1 6.2 43.2 42 -5.8 21.5
06:45 1021 30.15 850 25.1 6 42.7 42 -6.1 21.1
06:50 1021 30.15 850 25.1 6 42.7 41 -6.3 20.6
06:55 1021 30.15 850 25.1 6.3 43.4 40 -6.2 20.9
07:00 1021 30.15 850 25.1 6.2 43.1 42 -5.7 21.8
07:05 1021 30.15 850 25.1 5.9 42.5 44 -5.6 22
07:10 1021 30.15 850 25.1 5.8 42.5 43 -5.7 21.7
07:15 1021 30.15 850 25.1 6.1 43 42 -5.8 21.6
07:20 1021 30.15 850 25.1 6.6 43.9 41 -5.8 21.5
07:25 1021 30.15 850 25.1 6.7 44.1 41 -5.7 21.7
07:30 1021 30.15 850 25.1 6.8 44.3 40 -5.7 21.7
07:35 1021 30.15 850 25.1 7.3 45.1 41 -5.2 22.6
07:40 1021 30.15 850 25.1 7.1 44.8 42 -5 23.1
07:45 1021 30.15 850 25.1 7 44.7 42 -5 23
07:50 1021 30.15 850 25.1 7.2 45 41 -5.1 22.8
07:55 1021 30.15 850 25.1 7.7 45.9 40 -5 23.1
08:00 1021 30.15 850 25.1 8.4 47.2 38 -5 23.1
08:05 1021 30.15 850 25.1 8.7 47.6 38 -4.8 23.3
08:10 1021 30.15 850 25.1 9.1 48.3 38 -4.4 24.1
08:15 1021 30.15 850 25.1 9.6 49.2 37 -4.2 24.4
08:20 1021 30.15 850 25.1 9.9 49.8 36 -4.6 23.7
08:25 1021 30.15 850 25.1 10.2 50.3 33 -5.5 22.2
08:30 1021 30.15 850 25.1 10.6 51.1 32 -5.6 22
08:35 1021 30.15 850 25.1 11 51.9 31 -5.4 22.3
08:40 1021 30.15 850 25.1 10.8 51.4 30 -5.9 21.3
08:45 1021 30.15 850 25.1 10.7 51.3 31 -5.7 21.8
08:50 1021 30.15 850 25.1 11.1 52 29 -6.2 20.8
08:55 1021 30.15 850 25.1 11.6 52.9 28 -6.1 20.9
09:00 1021 30.15 850 25.1 12.5 54.5 26 -6.2 20.8
09:05 1021 30.15 850 25.1 13 55.3 26 -6 21.2
09:10 1021 30.15 850 25.1 13.2 55.8 26 -5.7 21.8
09:15 1021 30.15 850 25.1 13.3 55.9 26 -5.7 21.8
09:20 1020 30.12 850 25.1 13.1 55.5 27 -5.5 22
09:25 1020 30.12 850 25.1 13 55.5 27 -5.6 21.9
09:30 1020 30.12 850 25.1 13.9 57 25 -5.5 22.1
09:35 1020 30.12 850 25.1 14.1 57.4 25 -5.3 22.4
09:40 1020 30.12 850 25.1 13.6 56.5 26 -5.5 22.1
09:45 1020 30.12 849 25.07 13.8 56.8 26 -5.4 22.3
09:50 1020 30.12 849 25.07 13.9 57.1 25 -5.6 21.9
09:55 1020 30.12 849 25.07 14.7 58.5 24 -5.6 21.8
10:00 1020 30.12 849 25.07 14.7 58.5 24 -5.6 22
10:05 1020 30.12 849 25.07 15 59 24 -5.5 22.1
10:10 1020 30.12 849 25.07 15.6 60.2 23 -5.6 22
10:15 1020 30.12 849 25.07 15.6 60 24 -5 22.9
10:20 1020 30.12 849 25.07 16 60.7 24 -4.4 24.1
10:25 1020 30.12 849 25.07 15.9 60.5 25 -4.1 24.5
10:30 1020 30.12 849 25.07 16.1 60.9 24 -4.6 23.8
10:35 1020 30.12 849 25.07 16.2 61.1 24 -4.4 24.1
10:40 1020 30.12 849 25.07 16.4 61.5 24 -4.2 24.4
10:45 1020 30.12 849 25.07 16.9 62.3 24 -4 24.8
10:50 1020 30.12 849 25.07 16.5 61.6 24 -3.8 25.1
10:55 1020 30.12 849 25.07 16.6 61.8 23 -4.7 23.5
11:00 1020 30.12 849 25.07 16.9 62.5 24 -3.6 25.4
11:05 1020 30.12 849 25.07 16.3 61.4 24 -3.9 24.9
11:10 1020 30.12 849 25.07 16.1 61.1 25 -3.9 25
11:15 1020 30.12 849 25.07 17.2 63 22 -4.4 24
11:20 1019 30.09 849 25.07 18.1 64.6 23 -3.4 25.8
11:25 1019 30.09 849 25.07 17.9 64.1 22 -4.1 24.6
11:30 1019 30.09 849 25.07 18 64.4 23 -3.2 26.3
11:35 1019 30.09 849 25.07 17 62.6 24 -3.6 25.5
11:40 1019 30.09 849 25.07 17.6 63.7 23 -3.8 25.2
11:45 1019 30.09 848 25.04 18.1 64.7 24 -2.9 26.8
11:50 1019 30.09 848 25.04 18.2 64.8 23 -3.1 26.5
11:55 1019 30.09 848 25.04 18.7 65.7 23 -2.9 26.9
12:00 1019 30.09 848 25.04 19.5 67.2 22 -2.4 27.6
12:05 1019 30.09 848 25.04 18.7 65.7 24 -2.3 27.8
12:10 1019 30.09 848 25.04 19.4 66.8 22 -3 26.6
12:15 1019 30.09 848 25.04 20.1 68.1 21 -2.7 27.1
12:20 1019 30.09 848 25.04 19.6 67.4 23 -1.8 28.8
12:25 1019 30.09 848 25.04 19.6 67.3 22 -2.5 27.5
12:30 1019 30.09 848 25.04 20.2 68.4 24 -0.9 30.3
12:35 1018 30.06 848 25.04 19.8 67.6 23 -2.1 28.3
12:40 1018 30.06 848 25.04 20.3 68.5 22 -1.8 28.7
12:45 1018 30.06 848 25.04 19.9 67.8 22 -2.3 27.8
12:50 1018 30.06 848 25.04 19.5 67.2 21 -2.9 26.7
12:55 1018 30.06 847 25.01 19.3 66.7 22 -2.8 26.9
13:00 1018 30.06 847 25.01 20.2 68.3 19 -3.7 25.3
13:05 1018 30.06 847 25.01 20.9 69.7 19 -3.1 26.4
13:10 1018 30.06 847 25.01 21.4 70.4 19 -3 26.6
13:15 1018 30.06 847 25.01 21.5 70.6 17 -4.2 24.4
13:20 1018 30.06 847 25.01 22 71.7 16 -4.6 23.8
13:25 1018 30.06 847 25.01 21.2 70.1 17 -4.7 23.6
13:30 1018 30.06 847 25.01 20.7 69.3 17 -5 23
13:35 1018 30.06 847 25.01 21 69.8 15 -6.1 21
13:40 1017 30.03 847 25.01 22.1 71.8 15 -5.7 21.7
13:45 1017 30.03 847 25.01 22.5 72.5 14 -5.9 21.3
13:50 1017 30.03 847 25.01 22.7 72.9 14 -5.6 21.8
13:55 1017 30.03 847 25.01 22.5 72.5 11 -9.4 15.2
14:00 1017 30.03 846 24.98 22 71.6 11 -9.8 14.3
14:05 1017 30.03 846 24.98 21.8 71.3 10 -10.9 12.4
14:10 1017 30.03 846 24.98 22 71.7 11 -9.4 15.1
14:15 1017 30.03 846 24.98 21.9 71.5 11 -9.3 15.3
14:20 1017 30.03 846 24.98 22.3 72.2 12 -8.1 17.4
14:25 1017 30.03 846 24.98 22.1 71.8 12 -8.3 17
14:30 1017 30.03 846 24.98 22 71.6 13 -8 17.6
14:35 1017 30.03 846 24.98 21.7 71 13 -7.6 18.4
14:40 1017 30.03 846 24.98 21.4 70.5 13 -8 17.6
14:45 1017 30.03 846 24.98 21.7 71.1 13 -7.9 17.8
14:50 1017 30.03 846 24.98 22 71.5 13 -8 17.7
14:55 1017 30.03 846 24.98 22.2 72 13 -7.7 18.1
15:00 1017 30.03 846 24.98 22.2 71.9 13 -7.7 18.2
15:05 1017 30.03 846 24.98 22.1 71.8 13 -7.4 18.7
15:10 1016 30 846 24.98 22.4 72.2 13 -7.1 19.3
15:15 1016 30 846 24.98 22.3 72.2 13 -7 19.3
15:20 1016 30 846 24.98 22.1 71.8 12 -8 17.6
15:25 1016 30 846 24.98 22.4 72.4 13 -7.4 18.6
15:30 1016 30 845 24.95 22.3 72.1 12 -7.9 17.7
15:35 1016 30 845 24.95 21.7 71.1 13 -7.5 18.6
15:40 1016 30 845 24.95 22 71.6 13 -7.8 18
15:45 1016 30 845 24.95 21.9 71.5 13 -7.1 19.2
15:50 1016 30 845 24.95 22.2 71.9 14 -6.7 19.9
15:55 1016 30 845 24.95 22.6 72.7 13 -7.1 19.3
16:00 1016 30 845 24.95 22.2 72 14 -6.8 19.8
16:05 1016 30 845 24.95 22.2 72 14 -6.5 20.3
16:10 1016 30 845 24.95 22.1 71.7 14 -6.5 20.3
16:15 1016 30 845 24.95 21.9 71.4 15 -6 21.3
16:20 1016 30 845 24.95 21.8 71.3 14 -6.4 20.4
16:25 1016 30 845 24.95 21.9 71.3 14 -6.4 20.5
16:30 1016 30 845 24.95 21.8 71.2 15 -6.1 21.1
16:35 1016 30 845 24.95 21.8 71.3 15 -6.2 20.8
16:40 1015 29.97 845 24.95 21.8 71.2 15 -6.1 21
16:45 1015 29.97 845 24.95 21.8 71.3 15 -5.5 22
16:50 1015 29.97 845 24.95 22.1 71.8 15 -5.8 21.5
16:55 1015 29.97 845 24.95 21.9 71.4 15 -5.5 22.1
17:00 1015 29.97 845 24.95 21.7 71.1 16 -4.6 23.7
17:05 1015 29.97 844 24.92 21.6 71 17 -4.5 23.8
17:10 1015 29.97 844 24.92 21.4 70.6 17 -4.7 23.6
17:15 1015 29.97 844 24.92 21.3 70.4 17 -4.9 23.2
17:20 1015 29.97 844 24.92 21.2 70.2 17 -4.3 24.2
17:25 1015 29.97 844 24.92 21.5 70.7 17 -4.1 24.6
17:30 1015 29.97 844 24.92 21.5 70.6 18 -4 24.8
17:35 1015 29.97 844 24.92 21.3 70.3 18 -4.1 24.6
17:40 1015 29.97 844 24.92 21.1 69.9 18 -3.9 25
17:45 1015 29.97 844 24.92 21.1 70.1 18 -4.2 24.5
17:50 1015 29.97 844 24.92 21.1 70 18 -3.8 25.1
17:55 1015 29.97 844 24.92 21.1 69.9 18 -3.8 25.2
18:00 1015 29.97 844 24.92 20.9 69.7 18 -3.9 25
18:05 1015 29.97 844 24.92 21 69.8 18 -3.7 25.3
18:10 1015 29.97 844 24.92 20.9 69.6 19 -3.7 25.4
18:15 1015 29.97 844 24.92 20.9 69.5 18 -3.8 25.1
18:20 1015 29.97 844 24.92 20.7 69.2 19 -3.8 25.2
18:25 1015 29.97 844 24.92 20.4 68.8 19 -3.9 24.9
18:30 1015 29.97 844 24.92 20.5 68.8 19 -3.6 25.5
18:35 1015 29.97 844 24.92 20.4 68.7 20 -3.4 25.8
18:40 1015 29.97 844 24.92 20.3 68.6 20 -3.5 25.7
18:45 1015 29.97 844 24.92 20.2 68.4 20 -3.3 26.1
18:50 1015 29.97 844 24.92 20.1 68.1 20 -3.2 26.2
18:55 1015 29.97 844 24.92 20 68 21 -2.8 27
19:00 1014 29.94 844 24.92 19.8 67.7 21 -2.8 27
19:05 1014 29.94 844 24.92 19.7 67.5 21 -3 26.7
19:10 1014 29.94 844 24.92 19.6 67.3 22 -2.5 27.6
19:15 1014 29.94 844 24.92 19.5 67.1 23 -2.3 27.9
19:20 1014 29.94 844 24.92 19.4 66.9 23 -2.1 28.2
19:25 1014 29.94 844 24.92 19.2 66.6 23 -2.1 28.1
19:30 1014 29.94 844 24.92 19.1 66.4 23 -2.3 27.9
19:35 1014 29.94 844 24.92 19 66.1 24 -2.1 28.1
19:40 1014 29.94 844 24.92 18.8 65.9 23 -2.4 27.6
19:45 1014 29.94 844 24.92 18.7 65.7 24 -2.2 28
19:50 1014 29.94 844 24.92 18.5 65.3 24 -2.2 28.1
19:55 1014 29.94 844 24.92 18.3 65 24 -2.3 27.9
20:00 1014 29.94 844 24.92 18.2 64.8 25 -2.2 28.1
20:05 1014 29.94 844 24.92 18 64.4 25 -2.1 28.1
20:10 1014 29.94 844 24.92 17.9 64.1 26 -2 28.4
20:15 1014 29.94 844 24.92 17.6 63.8 26 -2.1 28.2
20:20 1014 29.94 844 24.92 17.5 63.5 26 -1.9 28.5
20:25 1014 29.94 844 24.92 17.3 63.1 27 -2 28.5
20:30 1014 29.94 844 24.92 17.1 62.8 27 -1.9 28.6
20:35 1014 29.94 844 24.92 17 62.6 27 -1.9 28.7
20:40 1014 29.94 844 24.92 16.9 62.3 28 -1.8 28.7
20:45 1014 29.94 844 24.92 16.7 62.1 28 -2 28.5
20:50 1014 29.94 844 24.92 16.6 61.8 28 -1.8 28.8
20:55 1014 29.94 844 24.92 16.5 61.7 28 -2 28.4
21:00 1014 29.94 844 24.92 16.5 61.7 28 -1.8 28.7
21:05 1014 29.94 844 24.92 16.4 61.5 29 -1.8 28.8
21:10 1014 29.94 844 24.92 16.3 61.3 29 -1.8 28.7
21:15 1015 29.97 844 24.92 16.2 61.2 29 -1.8 28.7
21:20 1015 29.97 844 24.92 16.2 61.1 29 -1.8 28.8
21:25 1015 29.97 844 24.92 16.1 61 29 -1.7 29
21:30 1015 29.97 844 24.92 16.1 61 30 -1.4 29.4
21:35 1015 29.97 844 24.92 16 60.8 30 -1.3 29.6
21:40 1015 29.97 844 24.92 15.9 60.7 31 -1.3 29.7
21:45 1015 29.97 844 24.92 15.8 60.5 31 -1.1 30
21:50 1015 29.97 844 24.92 15.7 60.3 31 -1.3 29.7
21:55 1015 29.97 844 24.92 15.7 60.2 31 -1.1 30
22:00 1015 29.97 844 24.92 15.6 60 31 -1.3 29.7
22:05 1015 29.97 844 24.92 15.5 60 31 -1.2 29.8
22:10 1015 29.97 844 24.92 15.4 59.8 32 -1.3 29.7
22:15 1015 29.97 844 24.92 15.4 59.7 32 -1.3 29.7
22:20 1015 29.97 844 24.92 15.3 59.5 32 -1.3 29.7
22:25 1015 29.97 844 24.92 15.2 59.3 32 -1.3 29.7
22:30 1015 29.97 844 24.92 15.1 59.1 32 -1.4 29.5
22:35 1014 29.94 844 24.92 15 58.9 33 -1.2 29.8
22:40 1014 29.94 844 24.92 14.8 58.6 33 -1.2 29.8
22:45 1014 29.94 844 24.92 14.7 58.4 33 -1.3 29.7
22:50 1014 29.94 844 24.92 14.6 58.2 34 -1.2 29.9
22:55 1014 29.94 843 24.89 14.4 57.8 34 -1.1 30
23:00 1014 29.94 843 24.89 14.2 57.6 34 -1.2 29.9
23:05 1014 29.94 843 24.89 14.2 57.5 35 -1.1 30.1
23:10 1014 29.94 843 24.89 14.1 57.4 35 -1.2 29.9
23:15 1014 29.94 843 24.89 14 57.2 35 -1.1 30.1
23:20 1014 29.94 843 24.89 13.9 57 36 -1 30.2
23:25 1014 29.94 843 24.89 13.8 56.8 36 -0.9 30.3
23:30 1014 29.94 843 24.89 13.6 56.5 36 -1 30.3
23:35 1014 29.94 843 24.89 13.6 56.4 37 -1 30.3
23:40 1014 29.94 843 24.89 13.4 56.1 37 -0.9 30.4
23:45 1014 29.94 843 24.89 13.3 56 37 -1 30.2
23:50 1014 29.94 843 24.89 13.3 56 37 -1.1 30.1
23:55 1014 29.94 843 24.89 13.3 56 37 -1.1 30.1
24:00 1014 29.94 843 24.89 13.3 56 37 -1.1 30.1